createdAt,value
2023-11-24T00:01:08.225Z,7.98
2023-11-24T00:03:36.220Z,8.00
2023-11-24T00:06:04.058Z,8.03
2023-11-24T00:08:33.102Z,8.00
2023-11-24T00:11:00.930Z,7.95
2023-11-24T00:13:29.478Z,7.94
2023-11-24T00:15:57.639Z,7.94
2023-11-24T00:18:25.482Z,7.95
2023-11-24T00:20:53.347Z,7.95
2023-11-24T00:23:21.075Z,7.96
2023-11-24T00:25:50.760Z,8.03
2023-11-24T00:28:19.788Z,8.03
2023-11-24T00:30:47.764Z,8.07
2023-11-24T00:33:16.972Z,8.03
2023-11-24T00:35:44.808Z,8.00
2023-11-24T00:38:12.506Z,7.99
2023-11-24T00:40:41.798Z,7.96
2023-11-24T00:43:11.138Z,7.91
2023-11-24T00:45:39.412Z,7.88
2023-11-24T00:48:07.999Z,7.80
2023-11-24T00:50:36.593Z,7.79
2023-11-24T00:53:04.857Z,7.74
2023-11-24T00:55:32.588Z,7.77
2023-11-24T00:58:00.711Z,7.75
2023-11-24T01:00:29.899Z,7.68
2023-11-24T01:02:59.279Z,7.64
2023-11-24T01:05:27.055Z,7.64
2023-11-24T01:07:55.757Z,7.67
2023-11-24T01:10:23.879Z,7.66
2023-11-24T01:12:52.595Z,7.63
2023-11-24T01:15:20.721Z,7.64
2023-11-24T01:17:50.007Z,7.57
2023-11-24T01:20:17.951Z,7.59
2023-11-24T01:22:46.351Z,7.54
2023-11-24T01:25:14.067Z,7.45
2023-11-24T01:27:41.784Z,7.41
2023-11-24T01:30:10.392Z,7.41
2023-11-24T01:32:38.238Z,7.32
2023-11-24T01:35:09.340Z,7.36
2023-11-24T01:37:37.192Z,7.31
2023-11-24T01:40:06.621Z,7.32
2023-11-24T01:42:37.171Z,7.31
2023-11-24T01:45:08.504Z,7.24
2023-11-24T01:47:36.338Z,7.18
2023-11-24T01:50:05.720Z,7.15
2023-11-24T01:52:36.289Z,7.19
2023-11-24T01:55:05.388Z,7.23
2023-11-24T01:57:33.550Z,7.20
2023-11-24T02:00:01.939Z,7.14
2023-11-24T02:02:31.516Z,7.13
2023-11-24T02:04:59.536Z,7.10
2023-11-24T02:07:28.142Z,7.03
2023-11-24T02:09:57.588Z,7.02
2023-11-24T02:12:25.419Z,7.05
2023-11-24T02:14:53.213Z,7.04
2023-11-24T02:17:22.048Z,7.04
2023-11-24T02:19:49.777Z,7.06
2023-11-24T02:22:17.556Z,7.07
2023-11-24T02:24:46.674Z,7.05
2023-11-24T02:27:14.816Z,7.09
2023-11-24T02:29:42.556Z,7.13
2023-11-24T02:32:10.288Z,7.03
2023-11-24T02:34:37.992Z,6.98
2023-11-24T02:37:05.960Z,6.99
2023-11-24T02:39:34.498Z,6.97
2023-11-24T02:42:03.774Z,6.99
2023-11-24T02:44:31.542Z,6.94
2023-11-24T02:46:59.339Z,6.94
2023-11-24T02:49:27.322Z,7.04
2023-11-24T02:51:55.644Z,6.97
2023-11-24T02:54:23.592Z,7.06
2023-11-24T02:56:51.396Z,7.15
2023-11-24T02:59:20.997Z,7.15
2023-11-24T03:01:49.242Z,7.16
2023-11-24T03:04:18.112Z,7.08
2023-11-24T03:06:46.016Z,6.99
2023-11-24T03:09:15.120Z,6.92
2023-11-24T03:11:43.518Z,6.94
2023-11-24T03:14:11.484Z,6.99
2023-11-24T03:16:41.414Z,7.02
2023-11-24T03:19:10.411Z,7.03
2023-11-24T03:21:38.247Z,7.07
2023-11-24T03:24:07.502Z,7.06
2023-11-24T03:26:35.435Z,7.08
2023-11-24T03:29:03.299Z,7.05
2023-11-24T03:31:31.961Z,7.05
2023-11-24T03:34:02.668Z,7.11
2023-11-24T03:36:30.586Z,7.17
2023-11-24T03:38:58.705Z,7.17
2023-11-24T03:41:26.460Z,7.10
2023-11-24T03:43:54.317Z,7.07
2023-11-24T03:46:22.762Z,6.98
2023-11-24T03:48:50.547Z,6.97
2023-11-24T03:51:20.891Z,7.03
2023-11-24T03:53:48.961Z,6.99
2023-11-24T03:56:16.858Z,7.01
2023-11-24T03:58:45.125Z,6.97
2023-11-24T04:01:16.478Z,6.98
2023-11-24T04:03:47.165Z,6.94
2023-11-24T04:06:15.154Z,6.94
2023-11-24T04:08:45.181Z,6.98
2023-11-24T04:11:13.077Z,6.99
2023-11-24T04:13:40.218Z,6.92
2023-11-24T04:16:09.319Z,6.88
2023-11-24T04:18:37.443Z,6.73
2023-11-24T04:21:07.180Z,6.78
2023-11-24T04:23:35.240Z,6.81
2023-11-24T04:26:04.834Z,6.85
2023-11-24T04:28:32.701Z,6.89
2023-11-24T04:31:00.627Z,6.94
2023-11-24T04:33:28.677Z,6.93
2023-11-24T04:35:57.687Z,6.78
2023-11-24T04:38:25.590Z,6.81
2023-11-24T04:40:53.883Z,6.85
2023-11-24T04:43:25.370Z,6.80
2023-11-24T04:45:53.613Z,6.70
2023-11-24T04:48:21.500Z,6.63
2023-11-24T04:50:49.338Z,6.62
2023-11-24T04:53:17.962Z,6.61
2023-11-24T04:55:45.901Z,6.61
2023-11-24T04:58:13.659Z,6.65
2023-11-24T05:00:43.871Z,6.60
2023-11-24T05:03:11.748Z,6.54
2023-11-24T05:05:40.263Z,6.43
2023-11-24T05:08:08.076Z,6.37
2023-11-24T05:10:35.797Z,6.36
2023-11-24T05:13:03.659Z,6.46
2023-11-24T05:15:32.843Z,6.47
2023-11-24T05:18:02.631Z,6.52
2023-11-24T05:20:30.405Z,6.54
2023-11-24T05:22:58.133Z,6.59
2023-11-24T05:25:25.988Z,6.55
2023-11-24T05:27:53.761Z,6.57
2023-11-24T05:30:21.628Z,6.52
2023-11-24T05:32:49.979Z,6.45
2023-11-24T05:35:19.230Z,6.47
2023-11-24T05:37:47.016Z,6.47
2023-11-24T05:40:16.873Z,6.47
2023-11-24T05:42:45.094Z,6.34
2023-11-24T05:45:13.487Z,6.30
2023-11-24T05:47:41.384Z,6.25
2023-11-24T05:50:11.903Z,6.24
2023-11-24T05:52:40.985Z,6.23
2023-11-24T05:55:09.488Z,6.18
2023-11-24T05:57:38.546Z,6.26
2023-11-24T06:00:09.876Z,6.17
2023-11-24T06:02:37.954Z,6.17
2023-11-24T06:05:06.580Z,6.09
2023-11-24T06:07:34.566Z,6.14
2023-11-24T06:10:04.449Z,6.10
2023-11-24T06:12:32.385Z,5.99
2023-11-24T06:15:00.200Z,6.03
2023-11-24T06:17:27.918Z,5.96
2023-11-24T06:19:55.869Z,6.05
2023-11-24T06:22:23.752Z,6.02
2023-11-24T06:24:51.868Z,6.10
2023-11-24T06:27:21.423Z,6.18
2023-11-24T06:29:49.607Z,6.15
2023-11-24T06:32:17.375Z,6.17
2023-11-24T06:34:45.150Z,6.19
2023-11-24T06:37:13.275Z,6.25
2023-11-24T06:39:41.031Z,6.24
2023-11-24T06:42:09.565Z,6.28
2023-11-24T06:44:38.704Z,6.09
2023-11-24T06:47:06.662Z,6.10
2023-11-24T06:49:34.432Z,6.05
2023-11-24T06:52:03.488Z,6.07
2023-11-24T06:54:31.393Z,6.06
2023-11-24T06:57:00.066Z,6.08
2023-11-24T06:59:27.947Z,6.11
2023-11-24T07:01:57.608Z,6.15
2023-11-24T07:04:25.665Z,6.12
2023-11-24T07:06:53.553Z,6.06
2023-11-24T07:09:22.242Z,6.05
2023-11-24T07:11:50.065Z,6.08
2023-11-24T07:14:17.840Z,6.12
2023-11-24T07:16:45.633Z,6.14
2023-11-24T07:19:17.764Z,6.09
2023-11-24T07:21:46.311Z,6.13
2023-11-24T07:24:14.135Z,6.21
2023-11-24T07:26:42.179Z,6.25
2023-11-24T07:29:09.997Z,6.10
2023-11-24T07:31:37.919Z,6.07
2023-11-24T07:34:07.811Z,6.11
2023-11-24T07:36:37.062Z,6.12
2023-11-24T07:39:05.463Z,6.15
2023-11-24T07:41:33.222Z,6.21
2023-11-24T07:44:01.078Z,6.16
2023-11-24T07:46:28.900Z,6.15
2023-11-24T07:48:56.818Z,6.14
2023-11-24T07:51:25.315Z,6.16
2023-11-24T07:53:54.654Z,6.24
2023-11-24T07:56:22.614Z,6.26
2023-11-24T07:58:50.451Z,6.21
2023-11-24T08:01:18.710Z,6.15
2023-11-24T08:03:46.847Z,6.14
2023-11-24T08:06:16.257Z,6.20
2023-11-24T08:08:44.033Z,6.22
2023-11-24T08:11:13.241Z,6.26
2023-11-24T08:13:41.205Z,6.24
2023-11-24T08:16:09.146Z,6.23
2023-11-24T08:18:37.586Z,6.23
2023-11-24T08:21:05.899Z,6.26
2023-11-24T08:23:33.578Z,6.24
2023-11-24T08:26:01.289Z,6.19
2023-11-24T08:28:30.446Z,6.13
2023-11-24T08:30:58.770Z,6.11
2023-11-24T08:33:26.687Z,6.09
2023-11-24T08:35:54.521Z,6.13
2023-11-24T08:38:22.594Z,6.11
2023-11-24T08:40:50.361Z,6.15
2023-11-24T08:43:19.266Z,6.14
2023-11-24T08:45:48.597Z,6.13
2023-11-24T08:48:16.357Z,6.20
2023-11-24T08:50:44.305Z,6.23
2023-11-24T08:53:11.990Z,6.33
2023-11-24T08:55:39.727Z,6.43
2023-11-24T08:58:07.703Z,6.32
2023-11-24T09:00:36.635Z,6.20
2023-11-24T09:03:06.318Z,6.16
2023-11-24T09:05:34.372Z,6.25
2023-11-24T09:08:02.256Z,6.37
2023-11-24T09:10:30.244Z,6.38
2023-11-24T09:12:58.908Z,6.31
2023-11-24T09:15:26.711Z,6.49
2023-11-24T09:17:54.797Z,6.43
2023-11-24T09:20:24.291Z,6.61
2023-11-24T09:22:52.116Z,6.63
2023-11-24T09:25:20.799Z,6.65
2023-11-24T09:27:49.026Z,6.69
2023-11-24T09:30:17.316Z,6.66
2023-11-24T09:32:46.920Z,6.63
2023-11-24T09:35:14.732Z,6.72
2023-11-24T09:37:44.102Z,6.84
2023-11-24T09:40:17.805Z,7.04
2023-11-24T09:42:48.593Z,7.03
2023-11-24T09:45:18.653Z,6.89
2023-11-24T09:47:50.137Z,6.94
2023-11-24T09:50:24.453Z,7.00
2023-11-24T09:52:56.495Z,7.01
2023-11-24T09:55:27.305Z,6.90
2023-11-24T09:57:56.707Z,6.83
2023-11-24T10:00:27.606Z,6.78
2023-11-24T10:02:59.937Z,6.72
2023-11-24T10:05:28.137Z,6.67
2023-11-24T10:07:58.930Z,6.65
2023-11-24T10:10:28.667Z,6.59
2023-11-24T10:12:59.755Z,6.55
2023-11-24T10:15:27.810Z,6.57
2023-11-24T10:17:55.751Z,6.58
2023-11-24T10:20:24.250Z,6.51
2023-11-24T10:22:53.379Z,6.61
2023-11-24T10:25:25.163Z,6.64
2023-11-24T10:27:57.885Z,6.64
2023-11-24T10:30:25.826Z,6.64
2023-11-24T10:32:53.782Z,6.52
2023-11-24T10:35:21.657Z,6.49
2023-11-24T10:37:51.628Z,6.61
2023-11-24T10:40:20.049Z,6.75
2023-11-24T10:42:51.703Z,6.77
2023-11-24T10:45:21.322Z,6.78
2023-11-24T10:48:02.231Z,6.80
2023-11-24T10:50:33.491Z,6.76
2023-11-24T10:53:08.907Z,6.76
2023-11-24T10:55:38.871Z,6.69
2023-11-24T10:58:08.219Z,6.71
2023-11-24T11:00:38.085Z,6.70
2023-11-24T11:03:07.608Z,6.81
2023-11-24T11:05:52.481Z,6.75
2023-11-24T11:08:29.289Z,6.72
2023-11-24T11:11:22.338Z,6.75
2023-11-24T11:13:52.754Z,6.86
2023-11-24T11:16:21.749Z,6.82
2023-11-24T11:18:50.882Z,6.82
2023-11-24T11:21:38.557Z,6.78
2023-11-24T11:24:07.674Z,6.82
2023-11-24T11:26:50.177Z,6.71
2023-11-24T11:29:21.426Z,6.76
2023-11-24T11:31:52.493Z,6.75
2023-11-24T11:34:27.538Z,6.76
2023-11-24T11:37:06.148Z,6.85
2023-11-24T11:39:39.626Z,6.81
2023-11-24T11:42:10.448Z,6.82
2023-11-24T11:44:47.215Z,7.01
2023-11-24T11:47:22.091Z,6.91
2023-11-24T11:49:52.999Z,6.97
2023-11-24T11:52:22.766Z,7.13
2023-11-24T11:54:52.806Z,7.08
2023-11-24T11:57:22.907Z,7.03
2023-11-24T11:59:52.316Z,7.10
2023-11-24T12:02:22.711Z,7.11
2023-11-24T12:04:51.661Z,7.25
2023-11-24T12:07:21.355Z,7.25
2023-11-24T12:09:50.890Z,7.29
2023-11-24T12:12:19.805Z,7.23
2023-11-24T12:14:49.570Z,7.04
2023-11-24T12:17:20.408Z,6.71
2023-11-24T12:19:49.631Z,6.61
2023-11-24T12:22:19.548Z,6.55
2023-11-24T12:24:47.973Z,6.50
2023-11-24T12:27:15.991Z,6.42
2023-11-24T12:29:47.086Z,6.37
2023-11-24T12:32:15.272Z,6.30
2023-11-24T12:34:47.405Z,6.29
2023-11-24T12:37:15.511Z,6.22
2023-11-24T12:39:43.410Z,6.08
2023-11-24T12:42:12.203Z,6.10
2023-11-24T12:44:42.677Z,6.23
2023-11-24T12:47:15.157Z,6.24
2023-11-24T12:50:08.443Z,6.12
2023-11-24T12:52:37.277Z,6.03
2023-11-24T12:55:08.523Z,5.95
2023-11-24T12:57:37.461Z,5.95
2023-11-24T13:00:10.850Z,6.05
2023-11-24T13:02:40.520Z,6.06
2023-11-24T13:05:11.568Z,6.15
2023-11-24T13:07:41.778Z,6.15
2023-11-24T13:10:12.609Z,6.17
2023-11-24T13:12:42.383Z,6.20
2023-11-24T13:15:11.125Z,6.24
2023-11-24T13:17:40.031Z,6.26
2023-11-24T13:20:12.312Z,6.26
2023-11-24T13:22:40.907Z,6.26
2023-11-24T13:25:10.241Z,6.24
2023-11-24T13:27:38.989Z,6.26
2023-11-24T13:30:10.621Z,6.17
2023-11-24T13:32:40.224Z,6.24
2023-11-24T13:35:11.450Z,6.22
2023-11-24T13:37:40.725Z,6.23
2023-11-24T13:40:10.639Z,6.34
2023-11-24T13:42:38.600Z,6.31
2023-11-24T13:45:07.594Z,6.33
2023-11-24T13:47:36.485Z,6.27
2023-11-24T13:50:05.908Z,6.19
2023-11-24T13:52:34.182Z,6.10
2023-11-24T13:55:03.938Z,6.08
2023-11-24T13:57:32.183Z,6.04
2023-11-24T14:00:00.084Z,5.92
2023-11-24T14:02:28.020Z,5.90
2023-11-24T14:04:56.077Z,5.94
2023-11-24T14:07:23.917Z,5.88
2023-11-24T14:09:51.755Z,5.76
2023-11-24T14:12:20.883Z,5.69
2023-11-24T14:14:48.698Z,5.69
2023-11-24T14:17:16.440Z,5.86
2023-11-24T14:19:44.377Z,5.90
2023-11-24T14:22:14.140Z,5.83
2023-11-24T14:24:44.100Z,6.07
2023-11-24T14:27:13.828Z,6.16
2023-11-24T14:29:44.049Z,5.97
2023-11-24T14:32:13.757Z,5.76
2023-11-24T14:34:41.621Z,5.61
2023-11-24T14:37:09.845Z,5.63
2023-11-24T14:39:44.904Z,5.73
2023-11-24T14:42:15.988Z,5.73
2023-11-24T14:44:45.302Z,5.64
2023-11-24T14:47:13.569Z,5.65
2023-11-24T14:49:42.302Z,5.62
2023-11-24T14:52:10.142Z,5.59
2023-11-24T14:54:38.590Z,5.51
2023-11-24T14:57:07.009Z,5.56
2023-11-24T14:59:34.801Z,5.55
2023-11-24T15:02:13.885Z,5.51
2023-11-24T15:04:41.957Z,5.54
2023-11-24T15:07:11.264Z,5.44
2023-11-24T15:09:43.243Z,5.44
2023-11-24T15:12:11.842Z,5.41
2023-11-24T15:14:41.771Z,5.34
2023-11-24T15:17:17.081Z,5.25
2023-11-24T15:19:46.901Z,5.19
2023-11-24T15:22:20.250Z,5.14
2023-11-24T15:24:50.710Z,5.13
2023-11-24T15:27:19.671Z,5.20
2023-11-24T15:29:47.738Z,5.15
2023-11-24T15:32:21.006Z,5.16
2023-11-24T15:34:48.848Z,5.15
2023-11-24T15:37:17.921Z,5.22
2023-11-24T15:39:48.445Z,5.15
2023-11-24T15:42:18.582Z,5.15
2023-11-24T15:44:47.635Z,5.13
2023-11-24T15:47:17.023Z,5.06
2023-11-24T15:49:44.890Z,5.10
2023-11-24T15:52:14.695Z,5.13
2023-11-24T15:54:43.610Z,5.10
2023-11-24T15:57:11.565Z,5.12
2023-11-24T15:59:42.855Z,5.12
2023-11-24T16:02:14.419Z,5.15
2023-11-24T16:04:46.213Z,5.18
2023-11-24T16:07:18.622Z,5.18
2023-11-24T16:09:47.231Z,5.21
2023-11-24T16:12:15.929Z,5.22
2023-11-24T16:14:44.799Z,5.20
2023-11-24T16:17:13.369Z,5.23
2023-11-24T16:19:41.324Z,5.30
2023-11-24T16:22:15.803Z,5.31
2023-11-24T16:24:44.743Z,5.25
2023-11-24T16:27:12.784Z,5.21
2023-11-24T16:29:40.574Z,5.22
2023-11-24T16:32:09.385Z,5.23
2023-11-24T16:34:39.013Z,5.23
2023-11-24T16:37:08.734Z,5.20
2023-11-24T16:39:38.029Z,5.28
2023-11-24T16:42:06.667Z,5.11
2023-11-24T16:44:34.478Z,5.08
2023-11-24T16:47:02.254Z,5.18
2023-11-24T16:49:30.839Z,5.37
2023-11-24T16:51:58.999Z,5.39
2023-11-24T16:54:27.244Z,5.29
2023-11-24T16:56:56.326Z,5.11
2023-11-24T16:59:24.047Z,5.03
2023-11-24T17:01:52.130Z,5.04
2023-11-24T17:04:20.618Z,4.86
2023-11-24T17:06:50.965Z,4.89
2023-11-24T17:09:20.075Z,4.85
2023-11-24T17:11:48.393Z,4.78
2023-11-24T17:14:19.145Z,4.84
2023-11-24T17:16:47.192Z,4.81
2023-11-24T17:19:16.360Z,4.81
2023-11-24T17:21:44.843Z,4.82
2023-11-24T17:24:13.286Z,4.90
2023-11-24T17:26:42.426Z,4.93
2023-11-24T17:29:13.955Z,4.89
2023-11-24T17:31:44.273Z,4.95
2023-11-24T17:34:13.905Z,4.92
2023-11-24T17:36:42.048Z,4.90
2023-11-24T17:39:10.940Z,4.88
2023-11-24T17:41:39.347Z,4.90
2023-11-24T17:44:12.266Z,4.82
2023-11-24T17:46:40.727Z,4.86
2023-11-24T17:49:12.475Z,4.88
2023-11-24T17:51:42.847Z,4.81
2023-11-24T17:54:11.387Z,4.84
2023-11-24T17:56:39.210Z,4.96
2023-11-24T17:59:07.386Z,4.89
2023-11-24T18:01:36.632Z,4.88
2023-11-24T18:04:04.677Z,4.94
2023-11-24T18:06:34.466Z,4.88
2023-11-24T18:09:03.160Z,4.82
2023-11-24T18:11:32.357Z,4.67
2023-11-24T18:14:00.736Z,4.66
2023-11-24T18:16:29.100Z,4.61
2023-11-24T18:18:57.001Z,4.45
2023-11-24T18:21:25.904Z,4.53
2023-11-24T18:23:55.052Z,4.54
2023-11-24T18:26:22.948Z,4.42
2023-11-24T18:28:52.368Z,4.44
2023-11-24T18:31:20.826Z,4.53
2023-11-24T18:33:48.953Z,4.52
2023-11-24T18:36:16.966Z,4.43
2023-11-24T18:38:44.732Z,4.34
2023-11-24T18:41:13.814Z,4.24
2023-11-24T18:43:41.874Z,4.29
2023-11-24T18:46:10.888Z,4.32
2023-11-24T18:48:39.638Z,4.31
2023-11-24T18:51:12.292Z,4.36
2023-11-24T18:53:40.335Z,4.30
2023-11-24T18:56:08.983Z,4.34
2023-11-24T18:58:38.413Z,4.36
2023-11-24T19:01:07.094Z,4.40
2023-11-24T19:03:34.823Z,4.41
2023-11-24T19:06:03.551Z,4.33
2023-11-24T19:08:31.672Z,4.31
2023-11-24T19:10:59.615Z,4.38
2023-11-24T19:13:27.680Z,4.36
2023-11-24T19:15:57.820Z,4.32
2023-11-24T19:18:25.674Z,4.25
2023-11-24T19:20:55.127Z,4.22
2023-11-24T19:23:23.377Z,4.20
2023-11-24T19:25:51.329Z,4.16
2023-11-24T19:28:21.893Z,4.13
2023-11-24T19:30:53.492Z,4.07
2023-11-24T19:33:22.993Z,4.00
2023-11-24T19:35:50.947Z,3.97
2023-11-24T19:38:18.665Z,4.00
2023-11-24T19:40:46.621Z,3.98
2023-11-24T19:43:14.895Z,3.95
2023-11-24T19:45:43.510Z,3.94
2023-11-24T19:48:12.043Z,3.98
2023-11-24T19:50:41.264Z,3.93
2023-11-24T19:53:09.542Z,3.91
2023-11-24T19:55:37.610Z,3.90
2023-11-24T19:58:06.140Z,3.91
2023-11-24T20:00:34.900Z,3.93
2023-11-24T20:03:03.516Z,4.02
2023-11-24T20:05:31.593Z,4.00
2023-11-24T20:08:01.117Z,3.97
2023-11-24T20:10:30.829Z,3.92
2023-11-24T20:12:58.795Z,3.83
2023-11-24T20:15:26.766Z,3.81
2023-11-24T20:17:54.805Z,3.76
2023-11-24T20:20:22.790Z,3.82
2023-11-24T20:22:50.784Z,3.80
2023-11-24T20:25:20.205Z,3.84
2023-11-24T20:27:48.218Z,3.83
2023-11-24T20:30:17.086Z,3.87
2023-11-24T20:32:45.168Z,3.87
2023-11-24T20:35:13.185Z,3.86
2023-11-24T20:37:42.486Z,3.90
2023-11-24T20:40:11.285Z,3.92
2023-11-24T20:42:40.792Z,3.96
2023-11-24T20:45:11.032Z,3.96
2023-11-24T20:47:39.325Z,4.01
2023-11-24T20:50:08.222Z,4.09
2023-11-24T20:52:36.246Z,4.13
2023-11-24T20:55:04.724Z,4.26
2023-11-24T20:57:32.788Z,4.49
2023-11-24T21:00:02.039Z,4.42
2023-11-24T21:02:31.918Z,4.39
2023-11-24T21:05:00.983Z,4.26
2023-11-24T21:07:31.699Z,4.17
2023-11-24T21:10:01.596Z,4.12
2023-11-24T21:12:29.599Z,4.07
2023-11-24T21:14:57.446Z,4.05
2023-11-24T21:17:27.767Z,3.99
2023-11-24T21:19:55.785Z,3.94
2023-11-24T21:22:23.787Z,3.92
2023-11-24T21:24:54.632Z,3.82
2023-11-24T21:27:22.843Z,3.77
2023-11-24T21:29:50.663Z,3.77
2023-11-24T21:32:18.675Z,3.78
2023-11-24T21:34:48.809Z,3.76
2023-11-24T21:37:17.800Z,3.75
2023-11-24T21:39:46.920Z,3.76
2023-11-24T21:42:15.743Z,3.74
2023-11-24T21:44:46.109Z,3.73
2023-11-24T21:47:14.407Z,3.76
2023-11-24T21:49:42.930Z,3.78
2023-11-24T21:52:12.173Z,3.75
2023-11-24T21:54:44.298Z,3.71
2023-11-24T21:57:14.762Z,3.74
2023-11-24T21:59:42.961Z,3.76
2023-11-24T22:02:11.344Z,3.74
2023-11-24T22:04:39.163Z,3.73
2023-11-24T22:07:06.990Z,3.68
2023-11-24T22:09:36.673Z,3.64
2023-11-24T22:12:05.473Z,3.64
2023-11-24T22:14:33.816Z,3.62
2023-11-24T22:17:01.878Z,3.62
2023-11-24T22:19:29.796Z,3.65
2023-11-24T22:21:57.797Z,3.60
2023-11-24T22:24:25.737Z,3.59
2023-11-24T22:26:54.858Z,3.50
2023-11-24T22:29:24.234Z,3.45
2023-11-24T22:31:52.087Z,3.47
2023-11-24T22:34:19.925Z,3.45
2023-11-24T22:36:47.721Z,3.48
2023-11-24T22:39:15.613Z,3.58
2023-11-24T22:41:43.433Z,3.59
2023-11-24T22:44:12.726Z,3.61
2023-11-24T22:46:40.589Z,3.66
2023-11-24T22:49:08.835Z,3.71
2023-11-24T22:51:37.310Z,3.65
2023-11-24T22:54:05.347Z,3.59
2023-11-24T22:56:33.153Z,3.53
2023-11-24T22:59:01.027Z,3.47
2023-11-24T23:01:30.734Z,3.42
2023-11-24T23:04:00.676Z,3.41
2023-11-24T23:06:30.152Z,3.41
2023-11-24T23:08:58.558Z,3.39
2023-11-24T23:11:27.082Z,3.37
2023-11-24T23:13:55.045Z,3.41
2023-11-24T23:16:26.071Z,3.39
2023-11-24T23:18:55.550Z,3.37
2023-11-24T23:21:24.382Z,3.40
2023-11-24T23:23:53.308Z,3.45
2023-11-24T23:26:22.367Z,3.35
2023-11-24T23:28:50.384Z,3.34
2023-11-24T23:31:19.100Z,3.32
2023-11-24T23:33:47.842Z,3.32
2023-11-24T23:36:18.523Z,3.30
2023-11-24T23:38:47.614Z,3.28
2023-11-24T23:41:15.503Z,3.28
2023-11-24T23:43:44.005Z,3.26
2023-11-24T23:46:12.263Z,3.23
2023-11-24T23:48:40.946Z,3.27
2023-11-24T23:51:08.682Z,3.25
2023-11-24T23:53:37.762Z,3.16
2023-11-24T23:56:06.710Z,3.09
2023-11-24T23:58:37.361Z,3.17
